Time;durP1;ratioP1;P1;durP2;ratioP2;P2;SDS_P1;SDS_P2;PMS_P1;PMS_P2;Temp;Humidity;BMP_temperature;BMP_pressure;BME280_temperature;BME280_humidity;BME280_pressure;Samples;Min_cycle;Max_cycle;Signal;HPM_P1;HPM_P2
2023/08/31 04:32:31;;;;;;;0.10;0.10;;;16.20;75.30;;;;;;4957563;28;20053;-77
2023/08/31 04:34:56;;;;;;;0.05;0.05;;;16.20;75.60;;;;;;4966729;28;20027;-77
2023/08/31 04:37:22;;;;;;;0.08;0.08;;;16.20;75.60;;;;;;4988820;28;20121;-77
2023/08/31 04:39:48;;;;;;;0.10;0.10;;;16.20;75.70;;;;;;4960086;29;20028;-77
2023/08/31 04:42:14;;;;;;;0.10;0.10;;;16.10;75.90;;;;;;4978915;28;20420;-77
2023/08/31 04:44:39;;;;;;;0.10;0.10;;;16.10;76.00;;;;;;4979506;28;20493;-77
2023/08/31 04:47:05;;;;;;;0.08;0.08;;;16.20;76.10;;;;;;4976707;28;20198;-76
2023/08/31 04:49:30;;;;;;;0.05;0.05;;;16.20;76.20;;;;;;4958498;28;20078;-76
2023/08/31 04:51:56;;;;;;;0.10;0.10;;;16.20;76.40;;;;;;4950267;28;20394;-75
2023/08/31 04:54:22;;;;;;;0.08;0.08;;;16.20;76.70;;;;;;4939618;29;20034;-77
2023/08/31 04:56:47;;;;;;;0.00;0.00;;;16.20;77.20;;;;;;4944111;29;20459;-76
2023/08/31 04:59:13;;;;;;;0.10;0.10;;;16.20;77.00;;;;;;4959694;29;20031;-80
2023/08/31 05:01:39;;;;;;;0.10;0.10;;;16.30;77.20;;;;;;4958092;28;20034;-79
2023/08/31 05:04:05;;;;;;;0.03;0.03;;;16.30;77.30;;;;;;4959872;29;20115;-82
2023/08/31 05:06:31;;;;;;;0.00;0.00;;;16.20;77.80;;;;;;4973296;28;20022;-84
2023/08/31 05:08:56;;;;;;;0.10;0.10;;;16.20;78.20;;;;;;4978313;28;20073;-84
2023/08/31 05:11:22;;;;;;;0.10;0.10;;;16.20;78.20;;;;;;4978148;28;20027;-87
2023/08/31 05:13:48;;;;;;;0.08;0.08;;;16.30;78.00;;;;;;4972493;28;20099;-84
2023/08/31 05:16:14;;;;;;;0.10;0.10;;;16.30;78.20;;;;;;4959381;29;20043;-85
2023/08/31 05:18:40;;;;;;;0.15;0.15;;;16.20;78.50;;;;;;4958916;29;20117;-85
2023/08/31 05:21:06;;;;;;;0.10;0.10;;;16.30;78.50;;;;;;4969900;28;20035;-84
2023/08/31 05:23:32;;;;;;;0.00;0.00;;;16.30;78.40;;;;;;4942257;29;20126;-84
2023/08/31 05:25:58;;;;;;;0.10;0.10;;;16.30;78.40;;;;;;4955852;29;20078;-83
2023/08/31 05:28:24;;;;;;;0.03;0.03;;;16.30;78.50;;;;;;4974312;28;20031;-80
2023/08/31 05:30:55;;;;;;;0.10;0.10;;;16.30;78.50;;;;;;4958804;29;20126;-80
2023/08/31 05:33:28;;;;;;;0.10;0.10;;;16.30;78.70;;;;;;4959192;29;20023;-80
2023/08/31 05:35:54;;;;;;;;;;;16.30;78.90;;;;;;4959577;29;20023;-80
2023/08/31 05:38:20;;;;;;;0.75;0.17;;;16.20;79.20;;;;;;4959182;28;19933;-80
2023/08/31 05:40:46;;;;;;;0.10;0.10;;;16.30;79.10;;;;;;4967961;28;20500;-80
2023/08/31 05:43:15;;;;;;;0.10;0.10;;;16.30;79.30;;;;;;4978436;28;20074;-80
2023/08/31 05:45:41;;;;;;;0.10;0.10;;;16.30;79.10;;;;;;4978459;28;20094;-80
2023/08/31 05:48:08;;;;;;;0.10;0.10;;;16.30;79.00;;;;;;4960016;28;20063;-79
2023/08/31 05:50:34;;;;;;;0.10;0.10;;;16.30;79.10;;;;;;4958602;28;20019;-80
2023/08/31 05:52:59;;;;;;;0.10;0.10;;;16.30;79.20;;;;;;4957733;29;20027;-79
2023/08/31 05:55:25;;;;;;;0.00;0.00;;;16.40;79.20;;;;;;4958019;29;20034;-79
2023/08/31 05:57:51;;;;;;;0.00;0.00;;;16.50;79.20;;;;;;4958270;29;20031;-80
2023/08/31 06:00:17;;;;;;;0.10;0.10;;;16.50;79.00;;;;;;4958460;29;20031;-79
2023/08/31 06:02:44;;;;;;;0.00;0.00;;;16.50;79.10;;;;;;4956867;28;20031;-79
2023/08/31 06:05:16;;;;;;;0.10;0.10;;;16.40;79.40;;;;;;4953817;29;20142;-82
2023/08/31 06:07:42;;;;;;;0.00;0.00;;;16.40;79.50;;;;;;4957979;29;20031;-80
2023/08/31 06:10:08;;;;;;;0.00;0.00;;;16.40;79.90;;;;;;4957874;28;20066;-80
2023/08/31 06:12:34;;;;;;;0.10;0.10;;;16.40;79.90;;;;;;4956861;29;20023;-80
2023/08/31 06:15:00;;;;;;;0.10;0.10;;;16.40;79.90;;;;;;4957210;29;20083;-80
2023/08/31 06:17:26;;;;;;;0.00;0.00;;;16.40;80.10;;;;;;4957978;28;20133;-80
2023/08/31 06:19:51;;;;;;;0.20;0.10;;;16.50;80.10;;;;;;4957427;28;20043;-80
2023/08/31 06:22:18;;;;;;;0.10;0.10;;;16.50;80.30;;;;;;4957604;28;20104;-80
2023/08/31 06:24:45;;;;;;;0.05;0.05;;;16.50;80.30;;;;;;4956814;29;20521;-83
2023/08/31 06:27:12;;;;;;;0.00;0.00;;;16.60;80.20;;;;;;4957411;28;20023;-83
2023/08/31 06:29:38;;;;;;;0.10;0.10;;;16.60;80.50;;;;;;4956686;29;20054;-85
2023/08/31 06:32:04;;;;;;;0.10;0.10;;;16.60;80.50;;;;;;4957103;28;20043;-80
2023/08/31 06:34:30;;;;;;;0.10;0.10;;;16.60;80.80;;;;;;4957758;29;20556;-79
2023/08/31 06:36:58;;;;;;;0.10;0.10;;;16.60;81.30;;;;;;4955805;29;20117;-80
2023/08/31 06:39:24;;;;;;;0.10;0.10;;;16.60;81.30;;;;;;4957674;29;20570;-80
2023/08/31 06:41:49;;;;;;;0.10;0.10;;;16.50;81.50;;;;;;4960203;28;20038;-81
2023/08/31 06:44:15;;;;;;;0.08;0.08;;;16.60;81.50;;;;;;4957442;29;20027;-80
2023/08/31 06:46:41;;;;;;;0.10;0.10;;;16.60;81.90;;;;;;4952889;29;20390;-79
2023/08/31 06:49:06;;;;;;;0.10;0.10;;;16.60;81.90;;;;;;4957076;28;20509;-80
2023/08/31 06:51:33;;;;;;;0.10;0.10;;;16.70;82.00;;;;;;4957024;29;20019;-81
2023/08/31 06:54:05;;;;;;;0.10;0.10;;;16.60;82.40;;;;;;4957664;28;20029;-85
2023/08/31 06:56:37;;;;;;;0.10;0.10;;;16.60;82.50;;;;;;4957703;29;20031;-80
2023/08/31 06:59:03;;;;;;;0.10;0.10;;;16.70;82.70;;;;;;4952702;29;20518;-78
2023/08/31 07:01:30;;;;;;;0.00;0.00;;;16.60;83.00;;;;;;4956757;28;20069;-77
2023/08/31 07:03:56;;;;;;;0.10;0.10;;;16.60;83.20;;;;;;4955829;29;20039;-78
2023/08/31 07:06:21;;;;;;;0.10;0.10;;;16.60;83.50;;;;;;4953365;29;20027;-77
2023/08/31 07:08:47;;;;;;;0.10;0.10;;;16.60;83.70;;;;;;4946910;29;20070;-77
2023/08/31 07:11:14;;;;;;;0.10;0.10;;;16.60;84.00;;;;;;4955915;29;20031;-78
2023/08/31 07:13:40;;;;;;;0.10;0.10;;;16.70;84.00;;;;;;4952977;29;20110;-77
2023/08/31 07:16:06;;;;;;;0.08;0.08;;;16.70;84.10;;;;;;4955317;29;20039;-77
2023/08/31 07:18:32;;;;;;;0.10;0.10;;;16.70;84.20;;;;;;4968077;28;20122;-77
2023/08/31 07:20:57;;;;;;;0.10;0.10;;;16.70;84.30;;;;;;4956826;29;20106;-78
2023/08/31 07:23:23;;;;;;;0.10;0.10;;;16.80;84.20;;;;;;4956898;29;20062;-78
2023/08/31 07:25:49;;;;;;;0.10;0.10;;;16.80;84.10;;;;;;4955689;29;20031;-77
2023/08/31 07:28:15;;;;;;;0.10;0.10;;;16.80;84.30;;;;;;4956535;29;20038;-77
2023/08/31 07:30:40;;;;;;;0.00;0.00;;;16.90;84.50;;;;;;4956241;29;20055;-77
2023/08/31 07:33:06;;;;;;;0.10;0.10;;;16.90;84.50;;;;;;4955500;29;20031;-77
2023/08/31 07:35:32;;;;;;;0.05;0.05;;;16.80;84.60;;;;;;4956416;29;20066;-77
2023/08/31 07:37:58;;;;;;;0.00;0.00;;;17.00;84.60;;;;;;4956628;29;20035;-77
2023/08/31 07:40:24;;;;;;;0.10;0.10;;;17.00;84.60;;;;;;4967219;28;20031;-77
2023/08/31 07:42:51;;;;;;;0.00;0.00;;;17.00;84.70;;;;;;4956271;29;20075;-77
2023/08/31 07:45:17;;;;;;;0.00;0.00;;;17.00;85.00;;;;;;4950299;29;20032;-77
2023/08/31 07:47:42;;;;;;;0.08;0.08;;;17.20;84.80;;;;;;4956030;29;20394;-77
2023/08/31 07:50:09;;;;;;;0.00;0.00;;;17.10;84.70;;;;;;4952031;29;20039;-77
2023/08/31 07:52:34;;;;;;;0.00;0.00;;;17.20;84.80;;;;;;4952102;29;20167;-77
2023/08/31 07:55:00;;;;;;;0.00;0.00;;;17.30;84.80;;;;;;4955974;29;20067;-77
2023/08/31 07:57:26;;;;;;;0.10;0.10;;;17.30;85.10;;;;;;4961309;28;20122;-77
2023/08/31 07:59:52;;;;;;;0.05;0.05;;;17.30;85.40;;;;;;4944478;29;20102;-77
2023/08/31 08:02:17;;;;;;;0.00;0.00;;;17.30;85.50;;;;;;4954959;29;20401;-76
2023/08/31 08:04:45;;;;;;;0.00;0.00;;;17.40;85.40;;;;;;4954062;29;20151;-80
2023/08/31 08:07:11;;;;;;;0.00;0.00;;;17.40;85.60;;;;;;4955672;28;20419;-79
2023/08/31 08:09:37;;;;;;;0.08;0.08;;;17.50;85.90;;;;;;4956602;28;20091;-80
2023/08/31 08:12:03;;;;;;;0.10;0.10;;;17.60;85.90;;;;;;4954070;29;20023;-80
2023/08/31 08:14:29;;;;;;;0.10;0.10;;;17.60;85.80;;;;;;4955502;28;20506;-82
2023/08/31 08:16:54;;;;;;;0.03;0.03;;;17.70;85.90;;;;;;4954255;28;20537;-79
2023/08/31 08:19:24;;;;;;;0.00;0.00;;;17.60;86.10;;;;;;4956455;29;20110;-77
2023/08/31 08:21:50;;;;;;;0.00;0.00;;;17.70;86.00;;;;;;4954923;29;20067;-80
2023/08/31 08:24:16;;;;;;;0.00;0.00;;;17.70;86.30;;;;;;4954412;29;20035;-79
2023/08/31 08:26:42;;;;;;;0.10;0.10;;;17.80;86.50;;;;;;4954626;28;20023;-77
2023/08/31 08:29:07;;;;;;;0.00;0.00;;;17.80;86.40;;;;;;4960797;28;20041;-78
2023/08/31 08:31:33;;;;;;;0.10;0.10;;;17.90;86.40;;;;;;4961243;28;20044;-77
2023/08/31 08:34:00;;;;;;;0.00;0.00;;;17.90;86.60;;;;;;4957996;28;20492;-78
2023/08/31 08:36:25;;;;;;;0.00;0.00;;;18.00;86.50;;;;;;4962641;28;20031;-78
2023/08/31 08:38:51;;;;;;;0.10;0.10;;;18.00;86.70;;;;;;4964243;28;20393;-78
2023/08/31 08:41:28;;;;;;;0.00;0.00;;;18.10;86.60;;;;;;4979235;28;20023;-77
2023/08/31 08:43:54;;;;;;;0.00;0.00;;;18.10;86.70;;;;;;4961254;28;20038;-78
2023/08/31 08:46:20;;;;;;;0.00;0.00;;;18.20;86.70;;;;;;4965723;28;20028;-77
2023/08/31 08:48:47;;;;;;;0.00;0.00;;;18.30;86.40;;;;;;4969262;28;20227;-77
2023/08/31 08:51:13;;;;;;;0.00;0.00;;;18.40;86.40;;;;;;4967663;28;20028;-77
2023/08/31 08:53:43;;;;;;;0.10;0.10;;;18.50;86.30;;;;;;4964334;28;20085;-77
2023/08/31 08:56:09;;;;;;;0.00;0.00;;;18.70;86.00;;;;;;4962026;28;20052;-77
2023/08/31 08:58:34;;;;;;;0.00;0.00;;;18.90;85.70;;;;;;4957247;28;20049;-77
2023/08/31 09:01:02;;;;;;;0.00;0.00;;;19.00;85.40;;;;;;4957364;29;20031;-77
2023/08/31 09:03:27;;;;;;;0.00;0.00;;;19.00;85.20;;;;;;4952235;28;20114;-77
2023/08/31 09:05:53;;;;;;;0.10;0.10;;;18.90;85.30;;;;;;4956814;28;20066;-77
2023/08/31 09:08:26;;;;;;;0.00;0.00;;;18.80;85.60;;;;;;4958564;28;20038;-77
2023/08/31 09:10:54;;;;;;;0.00;0.00;;;18.90;85.80;;;;;;4955937;29;20358;-77
2023/08/31 09:13:20;;;;;;;0.00;0.00;;;18.90;85.80;;;;;;4959081;28;20430;-77
2023/08/31 09:15:47;;;;;;;0.00;0.00;;;18.90;86.10;;;;;;4958326;29;20027;-77
2023/08/31 09:18:32;;;;;;;0.00;0.00;;;19.00;85.70;;;;;;4956579;28;20086;-77
2023/08/31 09:20:58;;;;;;;0.00;0.00;;;19.00;85.80;;;;;;4951649;28;20122;-77
2023/08/31 09:23:24;;;;;;;0.05;0.05;;;19.10;86.00;;;;;;4956155;29;20047;-77
2023/08/31 09:25:55;;;;;;;0.00;0.00;;;19.00;86.10;;;;;;4955194;28;20537;-77
2023/08/31 09:28:23;;;;;;;0.08;0.08;;;19.00;86.60;;;;;;4958271;28;20059;-77
2023/08/31 09:30:50;;;;;;;0.10;0.10;;;19.00;86.50;;;;;;4953550;29;20517;-77
2023/08/31 09:33:17;;;;;;;0.00;0.00;;;19.10;86.60;;;;;;4941390;29;20024;-77
2023/08/31 09:36:01;;;;;;;0.00;0.00;;;19.20;86.40;;;;;;4958462;29;20026;-77
2023/08/31 09:38:27;;;;;;;0.10;0.10;;;19.20;86.50;;;;;;4956551;29;20083;-78
2023/08/31 09:41:04;;;;;;;0.00;0.00;;;19.20;86.60;;;;;;4956655;28;20027;-77
2023/08/31 09:43:30;;;;;;;0.00;0.00;;;19.30;86.90;;;;;;4957760;29;20108;-77
2023/08/31 09:45:56;;;;;;;0.00;0.00;;;19.30;87.00;;;;;;4956890;29;20039;-77
2023/08/31 09:48:23;;;;;;;0.00;0.00;;;19.30;86.80;;;;;;4957204;29;20576;-77
2023/08/31 09:50:51;;;;;;;0.00;0.00;;;19.30;86.80;;;;;;4956199;29;20023;-76
2023/08/31 09:53:19;;;;;;;0.00;0.00;;;19.30;86.90;;;;;;4952666;29;20039;-76
2023/08/31 09:55:48;;;;;;;0.05;0.05;;;19.30;87.00;;;;;;4957409;28;20082;-81
2023/08/31 09:58:17;;;;;;;0.00;0.00;;;19.30;87.20;;;;;;4955418;28;20067;-77
2023/08/31 10:00:46;;;;;;;0.00;0.00;;;19.30;87.20;;;;;;4951845;29;20023;-79
2023/08/31 10:03:15;;;;;;;0.00;0.00;;;19.30;87.30;;;;;;4950525;28;20051;-76
2023/08/31 10:05:43;;;;;;;0.00;0.00;;;19.30;87.40;;;;;;4958044;29;20042;-77
2023/08/31 10:08:10;;;;;;;0.00;0.00;;;19.30;87.70;;;;;;4950414;29;20043;-77
2023/08/31 10:10:37;;;;;;;0.00;0.00;;;19.30;87.90;;;;;;4957390;29;20090;-78
2023/08/31 10:13:05;;;;;;;0.00;0.00;;;19.30;87.70;;;;;;4953934;29;20059;-78
2023/08/31 10:15:35;;;;;;;0.00;0.00;;;19.30;87.70;;;;;;4957699;29;20389;-80
2023/08/31 10:18:02;;;;;;;0.00;0.00;;;19.30;87.40;;;;;;4953805;29;20098;-81
2023/08/31 10:20:31;;;;;;;0.00;0.00;;;19.30;87.30;;;;;;4951672;29;20038;-82
2023/08/31 10:23:03;;;;;;;0.00;0.00;;;19.40;87.50;;;;;;4954719;28;20790;-82
2023/08/31 10:25:54;;;;;;;0.00;0.00;;;19.50;87.60;;;;;;4955631;29;20027;-83
2023/08/31 10:28:22;;;;;;;0.03;0.03;;;19.70;87.50;;;;;;4955875;29;20028;-82
2023/08/31 10:31:03;;;;;;;0.10;0.10;;;19.80;87.30;;;;;;4951413;29;20043;-82
2023/08/31 10:33:34;;;;;;;0.10;0.10;;;20.20;86.90;;;;;;4956078;29;20031;-83
2023/08/31 10:36:00;;;;;;;0.00;0.00;;;20.60;87.10;;;;;;4950285;29;20037;-85
2023/08/31 10:38:30;;;;;;;0.00;0.00;;;20.80;85.90;;;;;;4956828;29;20019;-84
2023/08/31 10:41:20;;;;;;;0.00;0.00;;;20.80;85.60;;;;;;4953757;28;20104;-81
2023/08/31 10:43:45;;;;;;;0.00;0.00;;;20.80;85.70;;;;;;4944590;29;20036;-81
2023/08/31 10:46:38;;;;;;;0.08;0.08;;;20.90;85.40;;;;;;4956815;29;20411;-82
2023/08/31 10:49:14;;;;;;;;;;;20.90;85.20;;;;;;4954240;29;20065;-81
2023/08/31 10:51:46;;;;;;;0.00;0.00;;;21.10;85.10;;;;;;4954264;29;19936;-81
2023/08/31 10:54:18;;;;;;;0.00;0.00;;;21.30;84.60;;;;;;4954822;29;20684;-81
2023/08/31 10:57:02;;;;;;;0.00;0.00;;;21.20;84.40;;;;;;4956733;29;20106;-82
2023/08/31 10:59:40;;;;;;;0.00;0.00;;;21.00;84.70;;;;;;4956876;29;20023;-79
2023/08/31 11:02:07;;;;;;;0.00;0.00;;;21.00;84.60;;;;;;4954067;29;20129;-76
2023/08/31 11:04:52;;;;;;;0.00;0.00;;;21.00;84.70;;;;;;4954645;29;20485;-77
2023/08/31 11:07:23;;;;;;;0.10;0.10;;;21.00;84.50;;;;;;4955368;28;20023;-76
2023/08/31 11:09:48;;;;;;;0.00;0.00;;;20.90;85.00;;;;;;4954938;29;20053;-77
2023/08/31 11:12:14;;;;;;;0.10;0.00;;;20.80;84.80;;;;;;4941957;29;20464;-77
2023/08/31 11:14:40;;;;;;;0.00;0.00;;;20.90;84.80;;;;;;4956506;28;20047;-77
2023/08/31 11:17:07;;;;;;;0.05;0.05;;;20.90;84.70;;;;;;4956570;29;20041;-78
2023/08/31 11:19:33;;;;;;;0.10;0.10;;;21.00;84.90;;;;;;4956271;28;20082;-81
2023/08/31 11:22:02;;;;;;;0.00;0.00;;;21.00;84.80;;;;;;4955700;29;20494;-77
2023/08/31 11:24:29;;;;;;;0.00;0.00;;;21.00;85.10;;;;;;4955512;29;20576;-77
2023/08/31 11:26:55;;;;;;;0.00;0.00;;;21.00;85.00;;;;;;4955782;29;20508;-77
2023/08/31 11:29:21;;;;;;;0.00;0.00;;;21.10;85.00;;;;;;4954850;29;20023;-76
2023/08/31 11:31:46;;;;;;;0.00;0.00;;;21.10;85.10;;;;;;4955686;28;20062;-77
2023/08/31 11:34:13;;;;;;;0.00;0.00;;;21.00;84.90;;;;;;4955546;29;20027;-82
2023/08/31 11:36:41;;;;;;;0.00;0.00;;;21.00;84.50;;;;;;4956460;28;20030;-81
2023/08/31 11:39:08;;;;;;;0.03;0.03;;;21.00;84.40;;;;;;4955030;29;20031;-80
2023/08/31 11:41:36;;;;;;;0.00;0.00;;;21.10;84.40;;;;;;4956945;28;20130;-82
2023/08/31 11:44:06;;;;;;;0.00;0.00;;;21.20;84.50;;;;;;4953479;29;20035;-80
2023/08/31 11:46:32;;;;;;;0.00;0.00;;;21.10;84.40;;;;;;4955703;29;20070;-79
2023/08/31 11:49:00;;;;;;;0.00;0.00;;;21.00;84.20;;;;;;4955297;28;20031;-79
2023/08/31 11:51:29;;;;;;;0.00;0.00;;;21.00;84.20;;;;;;4955305;29;20046;-80
2023/08/31 11:53:56;;;;;;;0.00;0.00;;;21.10;84.20;;;;;;4956009;28;20023;-78
2023/08/31 11:56:21;;;;;;;0.00;0.00;;;21.10;84.10;;;;;;4955945;29;20036;-78
2023/08/31 11:58:51;;;;;;;0.00;0.00;;;21.10;83.90;;;;;;4955960;29;20027;-79
2023/08/31 12:01:23;;;;;;;0.00;0.00;;;21.10;83.80;;;;;;4954203;29;20136;-81
2023/08/31 12:03:49;;;;;;;0.10;0.05;;;21.20;84.00;;;;;;4947159;29;20051;-79
2023/08/31 12:06:18;;;;;;;0.00;0.00;;;21.10;83.90;;;;;;4954912;29;20042;-78
2023/08/31 12:08:44;;;;;;;0.00;0.00;;;21.30;83.80;;;;;;4956293;29;20045;-78
2023/08/31 12:11:10;;;;;;;0.00;0.00;;;21.60;83.30;;;;;;4952332;29;20499;-78
2023/08/31 12:13:36;;;;;;;0.00;0.00;;;21.80;83.00;;;;;;4954485;29;20043;-78
2023/08/31 12:16:01;;;;;;;0.00;0.00;;;22.00;82.40;;;;;;4956117;29;20102;-78
2023/08/31 12:18:33;;;;;;;0.00;0.00;;;22.00;81.90;;;;;;4952370;28;20696;-78
2023/08/31 12:20:59;;;;;;;0.00;0.00;;;22.10;81.20;;;;;;4958272;29;20130;-78
2023/08/31 12:23:25;;;;;;;0.00;0.00;;;22.00;81.00;;;;;;4957819;29;20043;-78
2023/08/31 12:25:52;;;;;;;0.10;0.10;;;21.90;81.30;;;;;;4958735;29;20033;-78
2023/08/31 12:28:19;;;;;;;0.00;0.00;;;22.10;81.90;;;;;;4957163;29;20023;-77
2023/08/31 12:30:53;;;;;;;0.00;0.00;;;22.30;81.70;;;;;;4956614;28;20047;-78
2023/08/31 12:33:20;;;;;;;0.00;0.00;;;22.40;80.80;;;;;;4957708;29;20018;-78
2023/08/31 12:35:46;;;;;;;0.00;0.00;;;22.60;81.40;;;;;;4949571;29;20035;-77
2023/08/31 12:38:12;;;;;;;0.00;0.00;;;22.80;79.50;;;;;;4954121;29;20031;-79
2023/08/31 12:40:38;;;;;;;0.00;0.00;;;22.90;80.40;;;;;;4954451;28;20027;-78
2023/08/31 12:43:05;;;;;;;0.00;0.00;;;23.10;79.70;;;;;;4958135;29;20041;-78
2023/08/31 12:45:30;;;;;;;0.00;0.00;;;23.10;78.30;;;;;;4948967;29;20027;-79
2023/08/31 12:47:56;;;;;;;0.00;0.00;;;23.10;78.30;;;;;;4958005;28;20517;-78
2023/08/31 12:50:23;;;;;;;0.00;0.00;;;23.00;78.00;;;;;;4947840;29;20038;-78
2023/08/31 12:52:48;;;;;;;0.00;0.00;;;23.20;78.00;;;;;;4956857;28;20023;-78
2023/08/31 12:55:14;;;;;;;0.00;0.00;;;23.30;78.70;;;;;;4955951;28;20037;-78
2023/08/31 12:57:41;;;;;;;0.03;0.03;;;23.50;76.80;;;;;;4956782;28;20027;-78
2023/08/31 13:00:12;;;;;;;0.00;0.00;;;23.70;77.50;;;;;;4956716;29;20023;-78
2023/08/31 13:02:38;;;;;;;0.00;0.00;;;23.70;76.60;;;;;;4954436;29;20023;-78
2023/08/31 13:05:05;;;;;;;0.00;0.00;;;24.00;75.50;;;;;;4955354;29;20785;-79
2023/08/31 13:07:32;;;;;;;0.00;0.00;;;24.10;74.70;;;;;;4955702;29;20023;-80
2023/08/31 13:09:59;;;;;;;0.00;0.00;;;24.20;74.00;;;;;;4954898;29;20059;-83
2023/08/31 13:12:25;;;;;;;0.00;0.00;;;24.30;75.20;;;;;;4956637;28;20028;-90
2023/08/31 13:14:51;;;;;;;0.00;0.00;;;24.10;74.60;;;;;;4957307;28;20030;-89
2023/08/31 13:17:16;;;;;;;0.00;0.00;;;23.90;73.60;;;;;;4953764;29;20038;-91
2023/08/31 13:19:42;;;;;;;0.00;0.00;;;23.80;73.70;;;;;;4955530;29;20035;-91
2023/08/31 13:22:08;;;;;;;0.00;0.00;;;23.80;74.90;;;;;;4956564;29;20058;-91
2023/08/31 13:24:33;;;;;;;0.00;0.00;;;23.60;74.00;;;;;;4953208;29;20038;-90
2023/08/31 13:26:59;;;;;;;0.00;0.00;;;23.50;73.70;;;;;;4956395;28;20035;-88
2023/08/31 13:29:24;;;;;;;0.00;0.00;;;23.40;74.20;;;;;;4957187;28;20394;-88
2023/08/31 13:31:50;;;;;;;0.00;0.00;;;23.30;74.40;;;;;;4954834;28;20079;-90
2023/08/31 13:34:16;;;;;;;0.00;0.00;;;23.60;75.40;;;;;;4969738;28;20027;-85
2023/08/31 13:36:41;;;;;;;0.00;0.00;;;23.70;75.40;;;;;;4956160;28;20033;-88
2023/08/31 13:39:07;;;;;;;0.00;0.00;;;23.70;75.30;;;;;;4953905;29;20390;-89
2023/08/31 13:41:33;;;;;;;0.03;0.03;;;23.60;75.20;;;;;;4958452;28;20031;-88
2023/08/31 13:43:58;;;;;;;0.10;0.10;;;23.70;75.00;;;;;;4954881;29;20034;-85
2023/08/31 13:46:24;;;;;;;0.10;0.10;;;23.80;74.90;;;;;;4956056;28;20098;-85
2023/08/31 13:48:50;;;;;;;0.10;0.10;;;24.00;74.90;;;;;;4956048;29;20034;-84
2023/08/31 13:51:15;;;;;;;0.10;0.10;;;24.30;74.10;;;;;;4955656;29;20778;-85
2023/08/31 13:53:41;;;;;;;0.00;0.00;;;24.40;73.00;;;;;;4951628;29;20043;-86
2023/08/31 13:56:07;;;;;;;0.00;0.00;;;24.50;73.30;;;;;;4955219;28;20062;-88
2023/08/31 13:58:32;;;;;;;0.00;0.00;;;24.50;71.70;;;;;;4956645;29;20104;-87
2023/08/31 14:01:01;;;;;;;0.00;0.00;;;24.50;72.40;;;;;;4956512;29;20106;-85
2023/08/31 14:03:27;;;;;;;0.00;0.00;;;24.60;72.30;;;;;;4955377;29;20033;-88
2023/08/31 14:05:52;;;;;;;0.00;0.00;;;24.70;70.20;;;;;;4954428;28;20034;-87
2023/08/31 14:08:18;;;;;;;0.10;0.10;;;24.70;69.60;;;;;;4954536;29;20023;-79
2023/08/31 14:10:44;;;;;;;0.00;0.00;;;24.50;69.70;;;;;;4953799;29;20031;-80
2023/08/31 14:13:09;;;;;;;0.00;0.00;;;24.40;68.90;;;;;;4952870;29;20030;-87
2023/08/31 14:15:36;;;;;;;0.00;0.00;;;24.40;68.60;;;;;;4954764;29;20023;-85
2023/08/31 14:18:02;;;;;;;0.00;0.00;;;24.30;69.10;;;;;;4950489;29;20035;-84
2023/08/31 14:20:28;;;;;;;0.00;0.00;;;24.30;69.40;;;;;;4953699;29;20041;-84
2023/08/31 14:22:53;;;;;;;0.00;0.00;;;24.30;69.20;;;;;;4953380;29;20031;-91
2023/08/31 14:25:19;;;;;;;0.00;0.00;;;24.10;69.40;;;;;;4952416;29;20039;-85
2023/08/31 14:27:48;;;;;;;0.00;0.00;;;23.80;69.50;;;;;;4956350;28;20042;-84
2023/08/31 14:30:13;;;;;;;0.00;0.00;;;23.40;71.40;;;;;;4950788;29;20528;-86
2023/08/31 14:32:39;;;;;;;0.05;0.05;;;23.20;73.40;;;;;;4953268;28;20027;-84
2023/08/31 14:35:06;;;;;;;0.05;0.05;;;23.30;74.60;;;;;;4955927;28;20031;-85
2023/08/31 14:37:32;;;;;;;0.03;0.03;;;23.50;74.10;;;;;;4965200;28;20049;-83
2023/08/31 14:39:57;;;;;;;0.05;0.05;;;23.60;69.80;;;;;;4955039;28;20098;-84
2023/08/31 14:42:23;;;;;;;0.00;0.00;;;23.80;67.40;;;;;;4951512;28;20023;-84
2023/08/31 14:44:49;;;;;;;0.00;0.00;;;23.40;65.40;;;;;;4954364;28;20119;-83
2023/08/31 14:47:14;;;;;;;0.00;0.00;;;23.30;66.60;;;;;;4946505;28;20015;-84
2023/08/31 14:49:40;;;;;;;0.00;0.00;;;23.20;66.90;;;;;;4956119;28;20041;-83
2023/08/31 14:52:06;;;;;;;0.00;0.00;;;23.20;67.50;;;;;;4951580;29;20109;-83
2023/08/31 14:54:33;;;;;;;0.00;0.00;;;23.20;67.90;;;;;;4955082;29;20043;-83
2023/08/31 14:56:59;;;;;;;0.10;0.10;;;23.30;67.70;;;;;;4954387;28;20038;-83
2023/08/31 14:59:24;;;;;;;0.00;0.00;;;23.50;67.80;;;;;;4952029;29;20031;-83
2023/08/31 15:01:51;;;;;;;0.10;0.10;;;23.80;67.50;;;;;;4952777;29;20027;-84
2023/08/31 15:04:16;;;;;;;0.00;0.00;;;24.00;67.00;;;;;;4952662;29;20045;-84
2023/08/31 15:06:42;;;;;;;0.00;0.00;;;24.20;66.60;;;;;;4953942;28;20031;-84
2023/08/31 15:09:08;;;;;;;0.00;0.00;;;24.20;66.90;;;;;;4953649;29;20045;-83
2023/08/31 15:11:34;;;;;;;0.00;0.00;;;24.30;66.20;;;;;;4952732;28;20055;-84
2023/08/31 15:14:01;;;;;;;0.00;0.00;;;24.30;66.30;;;;;;4955557;28;20032;-83
2023/08/31 15:16:28;;;;;;;0.00;0.00;;;24.10;64.90;;;;;;4949273;29;20055;-82
2023/08/31 15:18:53;;;;;;;0.00;0.00;;;23.90;64.70;;;;;;4955624;29;20027;-83
2023/08/31 15:21:19;;;;;;;0.00;0.00;;;24.00;65.80;;;;;;4956392;28;20401;-82
2023/08/31 15:23:45;;;;;;;0.00;0.00;;;24.10;64.80;;;;;;4955211;29;20031;-83
2023/08/31 15:26:13;;;;;;;0.00;0.00;;;24.30;64.10;;;;;;4956368;29;20034;-82
2023/08/31 15:28:38;;;;;;;0.00;0.00;;;24.20;63.30;;;;;;4955130;29;20031;-82
2023/08/31 15:31:04;;;;;;;0.00;0.00;;;24.20;63.80;;;;;;4953807;28;20429;-81
2023/08/31 15:33:30;;;;;;;0.00;0.00;;;24.00;62.80;;;;;;4956309;28;20394;-78
2023/08/31 15:36:05;;;;;;;0.00;0.00;;;24.00;62.10;;;;;;4955187;29;20032;-91
2023/08/31 15:38:31;;;;;;;0.03;0.03;;;23.80;62.30;;;;;;4958341;28;20107;-83
2023/08/31 15:40:57;;;;;;;0.00;0.00;;;23.90;62.70;;;;;;4955845;28;20055;-82
2023/08/31 15:43:23;;;;;;;0.00;0.00;;;24.00;62.90;;;;;;4952650;29;20691;-85
2023/08/31 15:45:49;;;;;;;0.00;0.00;;;23.80;62.40;;;;;;4953741;29;20034;-84
2023/08/31 15:48:15;;;;;;;0.00;0.00;;;23.60;61.10;;;;;;4952752;29;20027;-84
2023/08/31 15:50:41;;;;;;;0.00;0.00;;;23.50;61.40;;;;;;4954712;29;20030;-84
2023/08/31 15:53:06;;;;;;;0.00;0.00;;;23.40;61.80;;;;;;4952848;28;20158;-83
2023/08/31 15:55:32;;;;;;;0.00;0.00;;;23.50;61.70;;;;;;4955068;28;20031;-85
2023/08/31 15:57:57;;;;;;;0.00;0.00;;;23.40;61.40;;;;;;4957857;28;20154;-83
2023/08/31 16:00:24;;;;;;;0.00;0.00;;;23.30;61.40;;;;;;4973267;28;20479;-83
2023/08/31 16:02:50;;;;;;;0.00;0.00;;;23.30;60.40;;;;;;4955738;29;20038;-84
2023/08/31 16:05:15;;;;;;;0.00;0.00;;;23.30;60.40;;;;;;4957930;28;20031;-84
2023/08/31 16:07:41;;;;;;;0.00;0.00;;;23.20;60.50;;;;;;4955232;28;20123;-84
2023/08/31 16:10:08;;;;;;;0.00;0.00;;;23.20;60.90;;;;;;4956592;29;20031;-83
2023/08/31 16:12:34;;;;;;;0.00;0.00;;;23.20;60.50;;;;;;4957587;29;20027;-83
2023/08/31 16:15:00;;;;;;;0.00;0.00;;;23.20;61.20;;;;;;4955861;29;20024;-83
2023/08/31 16:17:26;;;;;;;0.00;0.00;;;23.30;61.20;;;;;;4956017;29;20038;-85
2023/08/31 16:19:52;;;;;;;0.00;0.00;;;23.20;61.20;;;;;;4955407;29;20022;-84
2023/08/31 16:22:18;;;;;;;0.00;0.00;;;23.10;60.60;;;;;;4956799;29;20030;-86
2023/08/31 16:24:44;;;;;;;0.00;0.00;;;23.10;61.00;;;;;;4953348;29;20034;-84
2023/08/31 16:27:10;;;;;;;0.00;0.00;;;23.10;61.10;;;;;;4957460;28;20038;-87
2023/08/31 16:29:35;;;;;;;0.00;0.00;;;23.10;60.40;;;;;;4957040;29;20035;-86
2023/08/31 16:32:01;;;;;;;0.00;0.00;;;23.10;60.40;;;;;;4957275;29;20055;-84
2023/08/31 16:34:27;;;;;;;0.00;0.00;;;23.10;60.00;;;;;;4957829;28;20031;-85
2023/08/31 16:36:52;;;;;;;0.00;0.00;;;23.20;60.70;;;;;;4952001;29;20034;-81
2023/08/31 16:39:20;;;;;;;0.00;0.00;;;23.20;60.10;;;;;;4958028;29;20105;-81
2023/08/31 16:41:46;;;;;;;0.00;0.00;;;23.10;59.60;;;;;;4936104;28;20118;-80
2023/08/31 16:44:12;;;;;;;0.00;0.00;;;23.00;60.30;;;;;;4952838;29;20094;-81
2023/08/31 16:46:38;;;;;;;0.00;0.00;;;23.10;60.20;;;;;;4956212;28;20031;-80
2023/08/31 16:49:03;;;;;;;0.00;0.00;;;23.20;60.50;;;;;;4956151;29;20027;-83
2023/08/31 16:51:29;;;;;;;0.00;0.00;;;23.10;60.00;;;;;;4954684;29;20035;-85
2023/08/31 16:53:54;;;;;;;0.00;0.00;;;23.00;60.00;;;;;;4956530;28;20058;-82
2023/08/31 16:56:20;;;;;;;0.00;0.00;;;23.00;60.70;;;;;;4956020;29;20514;-81
2023/08/31 16:58:46;;;;;;;0.00;0.00;;;23.00;60.60;;;;;;4956509;29;20043;-80
2023/08/31 17:01:11;;;;;;;0.00;0.00;;;23.00;60.70;;;;;;4956139;29;20157;-83
2023/08/31 17:03:37;;;;;;;0.00;0.00;;;23.00;60.50;;;;;;4955254;29;20019;-83
2023/08/31 17:06:03;;;;;;;0.03;0.03;;;22.90;60.90;;;;;;4954221;28;20102;-83
2023/08/31 17:08:29;;;;;;;0.00;0.00;;;22.80;61.20;;;;;;4955705;28;20067;-78
2023/08/31 17:10:55;;;;;;;0.00;0.00;;;22.70;61.30;;;;;;4969413;28;20036;-81
2023/08/31 17:13:20;;;;;;;0.00;0.00;;;22.50;61.80;;;;;;4955740;28;20119;-80
2023/08/31 17:15:46;;;;;;;0.00;0.00;;;22.40;62.30;;;;;;4957063;29;20035;-80
2023/08/31 17:18:12;;;;;;;0.00;0.00;;;22.40;62.30;;;;;;4954967;29;20455;-81